Map

Track Data

SID SEASON NUMBER BASIN SUBBASIN NAME ISO_TIME NATURE LAT LON WMO_WIND WMO_PRES WMO_AGENCY TRACK_TYPE DIST2LAND LANDFALL IFLAG USA_AGENCY USA_ATCF_ID USA_LAT USA_LON USA_RECORD USA_STATUS USA_WIND USA_PRES USA_SSHS USA_R34_NE USA_R34_SE USA_R34_SW USA_R34_NW USA_R50_NE USA_R50_SE USA_R50_SW USA_R50_NW USA_R64_NE USA_R64_SE USA_R64_SW USA_R64_NW USA_POCI USA_ROCI USA_RMW USA_EYE TOKYO_LAT TOKYO_LON TOKYO_GRADE TOKYO_WIND TOKYO_PRES TOKYO_R50_DIR TOKYO_R50_LONG TOKYO_R50_SHORT TOKYO_R30_DIR TOKYO_R30_LONG TOKYO_R30_SHORT TOKYO_LAND CMA_LAT CMA_LON CMA_CAT CMA_WIND CMA_PRES HKO_LAT HKO_LON HKO_CAT HKO_WIND HKO_PRES NEWDELHI_LAT NEWDELHI_LON NEWDELHI_GRADE NEWDELHI_WIND NEWDELHI_PRES NEWDELHI_CI NEWDELHI_DP NEWDELHI_POCI REUNION_LAT REUNION_LON REUNION_TYPE REUNION_WIND REUNION_PRES REUNION_TNUM REUNION_CI REUNION_RMW REUNION_R34_NE REUNION_R34_SE REUNION_R34_SW REUNION_R34_NW REUNION_R50_NE REUNION_R50_SE REUNION_R50_SW REUNION_R50_NW REUNION_R64_NE REUNION_R64_SE REUNION_R64_SW REUNION_R64_NW BOM_LAT BOM_LON BOM_TYPE BOM_WIND BOM_PRES BOM_TNUM BOM_CI BOM_RMW BOM_R34_NE BOM_R34_SE BOM_R34_SW BOM_R34_NW BOM_R50_NE BOM_R50_SE BOM_R50_SW BOM_R50_NW BOM_R64_NE BOM_R64_SE BOM_R64_SW BOM_R64_NW BOM_ROCI BOM_POCI BOM_EYE BOM_POS_METHOD BOM_PRES_METHOD NADI_LAT NADI_LON NADI_CAT NADI_WIND NADI_PRES WELLINGTON_LAT WELLINGTON_LON WELLINGTON_WIND WELLINGTON_PRES DS824_LAT DS824_LON DS824_STAGE DS824_WIND DS824_PRES TD9636_LAT TD9636_LON TD9636_STAGE TD9636_WIND TD9636_PRES TD9635_LAT TD9635_LON TD9635_WIND TD9635_PRES TD9635_ROCI NEUMANN_LAT NEUMANN_LON NEUMANN_CLASS NEUMANN_WIND NEUMANN_PRES MLC_LAT MLC_LON MLC_CLASS MLC_WIND MLC_PRES USA_GUST BOM_GUST BOM_GUST_PER REUNION_GUST REUNION_GUST_PER USA_SEAHGT USA_SEARAD_NE USA_SEARAD_SE USA_SEARAD_SW USA_SEARAD_NW STORM_SPEED STORM_DIR
1920251N11323 1920 38 NA NA NOT_NAMED 1920-09-07 00:00:00 TS 11.1000 -36.6000 35 hurdat_atl main 1608 1605 O_____________ hurdat_atl AL011920 11.1000 -36.6000 TS 35 0 12 288
1920251N11323 1920 38 NA NA NOT_NAMED 1920-09-07 03:00:00 TS 11.2952 -37.1973 main 1616 1614 P_____________ AL011920 11.2952 -37.1973 TS 35 0 12 289
1920251N11323 1920 38 NA NA NOT_NAMED 1920-09-07 06:00:00 TS 11.5000 -37.8000 35 hurdat_atl main 1628 1627 O_____________ hurdat_atl AL011920 11.5000 -37.8000 TS 35 0 13 290
1920251N11323 1920 38 NA NA NOT_NAMED 1920-09-07 09:00:00 TS 11.7274 -38.4076 main 1643 1605 P_____________ AL011920 11.7274 -38.4076 TS 35 0 13 293
1920251N11323 1920 38 NA NA NOT_NAMED 1920-09-07 12:00:00 TS 12.0000 -39.0000 35 hurdat_atl main 1605 1577 O_____________ hurdat_atl AL011920 12.0000 -39.0000 TS 35 0 13 298
1920251N11323 1920 38 NA NA NOT_NAMED 1920-09-07 15:00:00 TS 12.3349 -39.5650 main 1568 1549 P_____________ AL011920 12.3349 -39.5650 TS 35 0 13 303
1920251N11323 1920 38 NA NA NOT_NAMED 1920-09-07 18:00:00 TS 12.7000 -40.1000 35 hurdat_atl main 1549 1527 O_____________ hurdat_atl AL011920 12.7000 -40.1000 TS 35 0 12 305
1920251N11323 1920 38 NA NA NOT_NAMED 1920-09-07 21:00:00 TS 13.0499 -40.6077 main 1527 1514 P_____________ AL011920 13.0499 -40.6077 TS 35 0 12 306
1920251N11323 1920 38 NA NA NOT_NAMED 1920-09-08 00:00:00 TS 13.4000 -41.1000 35 hurdat_atl main 1514 1497 O_____________ hurdat_atl AL011920 13.4000 -41.1000 TS 35 0 12 306
1920251N11323 1920 38 NA NA NOT_NAMED 1920-09-08 03:00:00 TS 13.7499 -41.6076 main 1497 1490 P_____________ AL011920 13.7499 -41.6076 TS 37 0 12 306
1920251N11323 1920 38 NA NA NOT_NAMED 1920-09-08 06:00:00 TS 14.1000 -42.1000 40 hurdat_atl main 1491 1483 O_____________ hurdat_atl AL011920 14.1000 -42.1000 TS 40 0 12 308
1920251N11323 1920 38 NA NA NOT_NAMED 1920-09-08 09:00:00 TS 14.4573 -42.5502 main 1488 1482 P_____________ AL011920 14.4573 -42.5502 TS 40 0 11 309
1920251N11323 1920 38 NA NA NOT_NAMED 1920-09-08 12:00:00 TS 14.8000 -43.0000 40 hurdat_atl main 1486 1478 O_____________ hurdat_atl AL011920 14.8000 -43.0000 TS 40 0 11 305
1920251N11323 1920 38 NA NA NOT_NAMED 1920-09-08 15:00:00 TS 15.0999 -43.4927 main 1480 1474 P_____________ AL011920 15.0999 -43.4927 TS 42 0 11 302
1920251N11323 1920 38 NA NA NOT_NAMED 1920-09-08 18:00:00 TS 15.4000 -44.0000 45 hurdat_atl main 1477 1469 O_____________ hurdat_atl AL011920 15.4000 -44.0000 TS 45 0 12 303
1920251N11323 1920 38 NA NA NOT_NAMED 1920-09-08 21:00:00 TS 15.7424 -44.5001 main 1471 1470 P_____________ AL011920 15.7424 -44.5001 TS 47 0 12 306
1920251N11323 1920 38 NA NA NOT_NAMED 1920-09-09 00:00:00 TS 16.1000 -45.0000 50 hurdat_atl main 1476 1469 O_____________ hurdat_atl AL011920 16.1000 -45.0000 TS 50 0 12 306
1920251N11323 1920 38 NA NA NOT_NAMED 1920-09-09 03:00:00 TS 16.4499 -45.5002 main 1474 1474 P_____________ AL011920 16.4499 -45.5002 TS 52 0 12 306
1920251N11323 1920 38 NA NA NOT_NAMED 1920-09-09 06:00:00 TS 16.8000 -46.0000 55 hurdat_atl main 1485 1479 O_____________ hurdat_atl AL011920 16.8000 -46.0000 TS 55 0 12 306
1920251N11323 1920 38 NA NA NOT_NAMED 1920-09-09 09:00:00 TS 17.1424 -46.5003 main 1489 1489 P_____________ AL011920 17.1424 -46.5003 TS 57 0 12 306
1920251N11323 1920 38 NA NA NOT_NAMED 1920-09-09 12:00:00 TS 17.5000 -47.0000 60 hurdat_atl main 1505 1500 O_____________ hurdat_atl AL011920 17.5000 -47.0000 TS 60 0 12 308
1920251N11323 1920 38 NA NA NOT_NAMED 1920-09-09 15:00:00 TS 17.8849 -47.5002 main 1524 1520 P_____________ AL011920 17.8849 -47.5002 TS 62 0 12 310
1920251N11323 1920 38 NA NA NOT_NAMED 1920-09-09 18:00:00 TS 18.3000 -48.0000 65 hurdat_atl main 1543 1538 O_____________ hurdat_atl AL011920 18.3000 -48.0000 HU 65 1 13 312
1920251N11323 1920 38 NA NA NOT_NAMED 1920-09-09 21:00:00 TS 18.7424 -48.5002 main 1560 1560 P_____________ AL011920 18.7424 -48.5002 HU 67 1 13 314
1920251N11323 1920 38 NA NA NOT_NAMED 1920-09-10 00:00:00 TS 19.2000 -49.0000 70 hurdat_atl main 1592 1585 O_____________ hurdat_atl AL011920 19.2000 -49.0000 HU 70 1 13 313
1920251N11323 1920 38 NA NA NOT_NAMED 1920-09-10 03:00:00 TS 19.6500 -49.5151 main 1585 1579 P_____________ AL011920 19.6500 -49.5151 HU 72 1 13 314
1920251N11323 1920 38 NA NA NOT_NAMED 1920-09-10 06:00:00 TS 20.1000 -50.0000 75 hurdat_atl main 1579 1571 O_____________ hurdat_atl AL011920 20.1000 -50.0000 HU 75 1 12 317
1920251N11323 1920 38 NA NA NOT_NAMED 1920-09-10 09:00:00 TS 20.5498 -50.4228 main 1577 1574 P_____________ AL011920 20.5498 -50.4228 HU 75 1 12 320
1920251N11323 1920 38 NA NA NOT_NAMED 1920-09-10 12:00:00 TS 21.0000 -50.8000 75 hurdat_atl main 1575 1541 O_____________ hurdat_atl AL011920 21.0000 -50.8000 HU 75 1 12 322
1920251N11323 1920 38 NA NA NOT_NAMED 1920-09-10 15:00:00 TS 21.4500 -51.1875 main 1543 1519 P_____________ AL011920 21.4500 -51.1875 HU 77 1 11 324
1920251N11323 1920 38 NA NA NOT_NAMED 1920-09-10 18:00:00 TS 21.9000 -51.5000 80 hurdat_atl main 1522 1509 O_____________ hurdat_atl AL011920 21.9000 -51.5000 HU 80 1 10 332
1920251N11323 1920 38 NA NA NOT_NAMED 1920-09-10 21:00:00 TS 22.3499 -51.6952 main 1512 1508 P_____________ AL011920 22.3499 -51.6952 HU 80 1 9 343
1920251N11323 1920 38 NA NA NOT_NAMED 1920-09-11 00:00:00 TS 22.8000 -51.8000 80 hurdat_atl main 1517 1517 O_____________ hurdat_atl AL011920 22.8000 -51.8000 HU 80 1 9 350
1920251N11323 1920 38 NA NA NOT_NAMED 1920-09-11 03:00:00 TS 23.2500 -51.8652 main 1520 1520 P_____________ AL011920 23.2500 -51.8652 HU 82 1 9 355
1920251N11323 1920 38 NA NA NOT_NAMED 1920-09-11 06:00:00 TS 23.7000 -51.9000 85 hurdat_atl main 1538 1538 O_____________ hurdat_atl AL011920 23.7000 -51.9000 HU 85 2 9 355
1920251N11323 1920 38 NA NA NOT_NAMED 1920-09-11 09:00:00 TS 24.1425 -51.9500 main 1545 1545 P_____________ AL011920 24.1425 -51.9500 HU 85 2 9 355
1920251N11323 1920 38 NA NA NOT_NAMED 1920-09-11 12:00:00 TS 24.6000 -52.0000 85 hurdat_atl main 1566 1566 O_____________ hurdat_atl AL011920 24.6000 -52.0000 HU 85 2 10 355
1920251N11323 1920 38 NA NA NOT_NAMED 1920-09-11 15:00:00 TS 25.0850 -52.0500 main 1580 1580 P_____________ AL011920 25.0850 -52.0500 HU 85 2 10 355
1920251N11323 1920 38 NA NA NOT_NAMED 1920-09-11 18:00:00 TS 25.6000 -52.1000 85 hurdat_atl main 1605 1605 O_____________ hurdat_atl AL011920 25.6000 -52.1000 HU 85 2 11 355
1920251N11323 1920 38 NA NA NOT_NAMED 1920-09-11 21:00:00 TS 26.1425 -52.1500 main 1623 1623 P_____________ AL011920 26.1425 -52.1500 HU 87 2 11 355
1920251N11323 1920 38 NA NA NOT_NAMED 1920-09-12 00:00:00 TS 26.7000 -52.2000 90 hurdat_atl main 1657 1657 O_____________ hurdat_atl AL011920 26.7000 -52.2000 HU 90 2 11 355
1920251N11323 1920 38 NA NA NOT_NAMED 1920-09-12 03:00:00 TS 27.2425 -52.2648 main 1678 1678 P_____________ AL011920 27.2425 -52.2648 HU 92 2 11 355
1920251N11323 1920 38 NA NA NOT_NAMED 1920-09-12 06:00:00 TS 27.8000 -52.3000 95 hurdat_atl main 1716 1716 O_____________ hurdat_atl AL011920 27.8000 -52.3000 HU 95 2 12 359
1920251N11323 1920 38 NA NA NOT_NAMED 1920-09-12 09:00:00 TS 28.3925 -52.2799 main 1755 1755 P_____________ AL011920 28.3925 -52.2799 HU 95 2 12 4
1920251N11323 1920 38 NA NA NOT_NAMED 1920-09-12 12:00:00 TS 29.0000 -52.2000 95 hurdat_atl main 1803 1803 O_____________ hurdat_atl AL011920 29.0000 -52.2000 HU 95 2 12 8
1920251N11323 1920 38 NA NA NOT_NAMED 1920-09-12 15:00:00 TS 29.6075 -52.0799 main 1853 1829 P_____________ AL011920 29.6075 -52.0799 HU 95 2 12 12
1920251N11323 1920 38 NA NA NOT_NAMED 1920-09-12 18:00:00 TS 30.2000 -51.9000 95 hurdat_atl main 1829 1774 O_____________ hurdat_atl AL011920 30.2000 -51.9000 HU 95 2 12 17
1920251N11323 1920 38 NA NA NOT_NAMED 1920-09-12 21:00:00 TS 30.7575 -51.6723 main 1763 1710 P_____________ AL011920 30.7575 -51.6723 HU 92 2 12 21
1920251N11323 1920 38 NA NA NOT_NAMED 1920-09-13 00:00:00 TS 31.3000 -51.4000 90 hurdat_atl main 1710 1656 O_____________ hurdat_atl AL011920 31.3000 -51.4000 HU 90 2 12 23
1920251N11323 1920 38 NA NA NOT_NAMED 1920-09-13 03:00:00 TS 31.8499 -51.1220 main 1657 1593 P_____________ AL011920 31.8499 -51.1220 HU 90 2 12 25
1920251N11323 1920 38 NA NA NOT_NAMED 1920-09-13 06:00:00 TS 32.4000 -50.8000 90 hurdat_atl main 1593 1541 O_____________ hurdat_atl AL011920 32.4000 -50.8000 HU 90 2 13 28
1920251N11323 1920 38 NA NA NOT_NAMED 1920-09-13 09:00:00 TS 32.9499 -50.4221 main 1543 1482 P_____________ AL011920 32.9499 -50.4221 HU 87 2 13 31
1920251N11323 1920 38 NA NA NOT_NAMED 1920-09-13 12:00:00 TS 33.5000 -50.0000 85 hurdat_atl main 1482 1434 O_____________ hurdat_atl AL011920 33.5000 -50.0000 HU 85 2 13 33
1920251N11323 1920 38 NA NA NOT_NAMED 1920-09-13 15:00:00 TS 34.0423 -49.5643 main 1434 1378 P_____________ AL011920 34.0423 -49.5643 HU 85 2 13 34
1920251N11323 1920 38 NA NA NOT_NAMED 1920-09-13 18:00:00 TS 34.6000 -49.1000 85 hurdat_atl main 1378 1325 O_____________ hurdat_atl AL011920 34.6000 -49.1000 HU 85 2 14 34
1920251N11323 1920 38 NA NA NOT_NAMED 1920-09-13 21:00:00 TS 35.1998 -48.6145 main 1325 1273 P_____________ AL011920 35.1998 -48.6145 HU 82 1 15 34
1920251N11323 1920 38 NA NA NOT_NAMED 1920-09-14 00:00:00 TS 35.8000 -48.1000 80 hurdat_atl main 1273 1232 O_____________ hurdat_atl AL011920 35.8000 -48.1000 HU 80 1 14 36
1920251N11323 1920 38 NA NA NOT_NAMED 1920-09-14 03:00:00 TS 36.3569 -47.5861 main 1225 1193 P_____________ AL011920 36.3569 -47.5861 HU 80 1 14 39
1920251N11323 1920 38 NA NA NOT_NAMED 1920-09-14 06:00:00 TS 36.9000 -47.0000 80 hurdat_atl main 1193 1165 O_____________ hurdat_atl AL011920 36.9000 -47.0000 HU 80 1 15 43
1920251N11323 1920 38 NA NA NOT_NAMED 1920-09-14 09:00:00 TS 37.4568 -46.3164 main 1159 1144 P_____________ AL011920 37.4568 -46.3164 HU 77 1 16 47
1920251N11323 1920 38 NA NA NOT_NAMED 1920-09-14 12:00:00 TS 38.0000 -45.5000 75 hurdat_atl main 1144 1134 O_____________ hurdat_atl AL011920 38.0000 -45.5000 HU 75 1 17 52
1920251N11323 1920 38 NA NA NOT_NAMED 1920-09-14 15:00:00 TS 38.5140 -44.5736 main 1140 1136 P_____________ AL011920 38.5140 -44.5736 HU 72 1 19 57
1920251N11323 1920 38 NA NA NOT_NAMED 1920-09-14 18:00:00 TS 39.0000 -43.5000 70 hurdat_atl main 1154 1151 O_____________ hurdat_atl AL011920 39.0000 -43.5000 HU 70 1 20 62
1920251N11323 1920 38 NA NA NOT_NAMED 1920-09-14 21:00:00 TS 39.4640 -42.3087 main 1182 1182 P_____________ AL011920 39.4640 -42.3087 HU 65 1 21 65
1920251N11323 1920 38 NA NA NOT_NAMED 1920-09-15 00:00:00 ET 39.9000 -41.0000 60 hurdat_atl main 1231 1231 O_____________ hurdat_atl AL011920 39.9000 -41.0000 EX 60 -4 22 67
1920251N11323 1920 38 NA NA NOT_NAMED 1920-09-15 03:00:00 ET 40.3130 -39.6507 main 1286 1286 P_____________ AL011920 40.3130 -39.6507 EX 55 -4 23 69
1920251N11323 1920 38 NA NA NOT_NAMED 1920-09-15 06:00:00 ET 40.7000 -38.2000 50 hurdat_atl main 1361 1361 O_____________ hurdat_atl AL011920 40.7000 -38.2000 EX 50 -4 24 72
1920251N11323 1920 38 NA NA NOT_NAMED 1920-09-15 09:00:00 ET 41.0793 -36.6225 main 1449 1449 P_____________ AL011920 41.0793 -36.6225 EX 47 -4 25 74
1920251N11323 1920 38 NA NA NOT_NAMED 1920-09-15 12:00:00 ET 41.4000 -35.0000 45 hurdat_atl main 1543 1543 O_____________ hurdat_atl AL011920 41.4000 -35.0000 EX 45 -4 24 77
1920251N11323 1920 38 NA NA NOT_NAMED 1920-09-15 15:00:00 ET 41.6341 -33.4633 main 1638 1638 P_____________ AL011920 41.6341 -33.4633 EX 42 -4 23 80
1920251N11323 1920 38 NA NA NOT_NAMED 1920-09-15 18:00:00 ET 41.8000 -31.9000 40 hurdat_atl main 1743 1716 O_____________ hurdat_atl AL011920 41.8000 -31.9000 EX 40 -4 24 83
1920251N11323 1920 38 NA NA NOT_NAMED 1920-09-15 21:00:00 ET 41.9203 -30.2364 main 1708 1577 P_____________ AL011920 41.9203 -30.2364 EX 37 -4 25 85
1920251N11323 1920 38 NA NA NOT_NAMED 1920-09-16 00:00:00 ET 42.0000 -28.5000 35 hurdat_atl main 1569 1429 O_____________ hurdat_atl AL011920 42.0000 -28.5000 EX 35 -4 26 87
1920251N11323 1920 38 NA NA NOT_NAMED 1920-09-16 03:00:00 ET 42.0607 -26.7134 main 1421 1283 P_____________ AL011920 42.0607 -26.7134 EX 32 -4 27 88
1920251N11323 1920 38 NA NA NOT_NAMED 1920-09-16 06:00:00 ET 42.1000 -24.9000 30 hurdat_atl main 1275 O_____________ hurdat_atl AL011920 42.1000 -24.9000 EX 30 -4 27 88

About IBTrACS Database

This database is a web-friendly format of International Best Track Archive for Climate Stewardship (IBTrACS), a global best track data archive curated by NOAA dating back to 1842.

Updated: 2021-12-03